createdAt,value
2022-08-03T00:01:04.262Z,27.70
2022-08-03T00:06:12.805Z,27.70
2022-08-03T00:11:26.576Z,27.70
2022-08-03T00:16:37.370Z,27.70
2022-08-03T00:21:40.992Z,27.60
2022-08-03T00:26:58.035Z,27.60
2022-08-03T00:32:03.494Z,27.60
2022-08-03T00:37:07.121Z,27.60
2022-08-03T00:42:12.086Z,27.60
2022-08-03T00:47:15.997Z,27.60
2022-08-03T00:52:19.815Z,27.60
2022-08-03T00:57:25.152Z,27.60
2022-08-03T01:02:29.663Z,27.60
2022-08-03T01:07:51.123Z,27.60
2022-08-03T01:13:05.131Z,27.60
2022-08-03T01:18:18.554Z,27.60
2022-08-03T01:23:55.702Z,27.60
2022-08-03T01:29:39.019Z,27.60
2022-08-03T01:34:53.093Z,27.60
2022-08-03T01:39:59.631Z,27.60
2022-08-03T01:45:07.926Z,27.60
2022-08-03T01:50:13.946Z,27.60
2022-08-03T01:55:20.869Z,27.60
2022-08-03T02:00:27.162Z,27.60
2022-08-03T02:05:32.879Z,27.60
2022-08-03T02:10:39.161Z,27.60
2022-08-03T02:15:45.507Z,27.60
2022-08-03T02:20:50.290Z,27.60
2022-08-03T02:26:00.183Z,27.60
2022-08-03T02:31:14.493Z,27.60
2022-08-03T02:36:27.317Z,27.60
2022-08-03T02:41:37.158Z,27.60
2022-08-03T02:46:47.230Z,27.60
2022-08-03T02:51:54.030Z,27.60
2022-08-03T02:56:58.896Z,27.60
2022-08-03T03:02:05.422Z,27.60
2022-08-03T03:07:09.288Z,27.60
2022-08-03T03:12:15.706Z,27.60
2022-08-03T03:17:22.598Z,27.60
2022-08-03T03:22:26.636Z,27.50
2022-08-03T03:27:30.843Z,27.50
2022-08-03T03:32:39.907Z,27.50
2022-08-03T03:37:43.551Z,27.50
2022-08-03T03:42:47.503Z,27.50
2022-08-03T03:47:52.816Z,27.50
2022-08-03T03:52:56.602Z,27.50
2022-08-03T03:58:01.367Z,27.50
2022-08-03T04:03:06.478Z,27.50
2022-08-03T04:08:33.332Z,27.50
2022-08-03T04:13:53.026Z,27.40
2022-08-03T04:19:06.145Z,27.50
2022-08-03T04:24:13.095Z,27.50
2022-08-03T04:29:17.330Z,27.50
2022-08-03T04:34:22.557Z,27.50
2022-08-03T04:39:29.325Z,27.50
2022-08-03T04:44:38.036Z,27.40
2022-08-03T04:49:44.342Z,27.40
2022-08-03T04:54:50.927Z,27.40
2022-08-03T05:00:02.257Z,27.40
2022-08-03T05:05:10.205Z,27.40
2022-08-03T05:10:16.297Z,27.40
2022-08-03T05:15:20.583Z,27.40
2022-08-03T05:20:25.596Z,27.40
2022-08-03T05:25:29.528Z,27.40
2022-08-03T05:30:34.657Z,27.40
2022-08-03T05:36:01.223Z,27.40
2022-08-03T05:41:21.961Z,27.40
2022-08-03T05:46:27.522Z,27.40
2022-08-03T05:51:32.697Z,27.40
2022-08-03T05:56:36.400Z,27.40
2022-08-03T06:01:40.318Z,27.40
2022-08-03T06:06:45.537Z,27.40
2022-08-03T06:11:49.286Z,27.40
2022-08-03T06:16:52.902Z,27.40
2022-08-03T06:21:58.425Z,27.40
2022-08-03T06:27:03.445Z,27.40
2022-08-03T06:32:07.731Z,27.40
2022-08-03T06:37:12.596Z,27.40
2022-08-03T06:42:16.300Z,27.40
2022-08-03T06:47:19.973Z,27.40
2022-08-03T06:52:37.847Z,27.40
2022-08-03T06:57:48.214Z,27.40
2022-08-03T07:02:57.668Z,27.40
2022-08-03T07:08:03.287Z,27.40
2022-08-03T07:13:07.414Z,27.40
2022-08-03T07:18:11.008Z,27.40
2022-08-03T07:23:16.113Z,27.40
2022-08-03T07:28:23.157Z,27.40
2022-08-03T07:33:26.788Z,27.40
2022-08-03T07:38:31.744Z,27.40
2022-08-03T07:43:35.248Z,27.40
2022-08-03T07:48:38.811Z,27.40
2022-08-03T07:53:47.808Z,27.40
2022-08-03T07:58:51.817Z,27.40
2022-08-03T08:03:55.443Z,27.40
2022-08-03T08:09:02.388Z,27.40
2022-08-03T08:14:07.476Z,27.40
2022-08-03T08:19:11.006Z,27.40
2022-08-03T08:24:18.259Z,27.40
2022-08-03T08:29:24.242Z,27.40
2022-08-03T08:34:27.817Z,27.40
2022-08-03T08:39:33.201Z,27.40
2022-08-03T08:44:36.755Z,27.40
2022-08-03T08:49:53.441Z,27.40
2022-08-03T08:55:09.503Z,27.40
2022-08-03T09:00:15.111Z,27.40
2022-08-03T09:05:31.506Z,27.40
2022-08-03T09:10:45.608Z,27.40
2022-08-03T09:16:00.676Z,27.40
2022-08-03T09:21:34.933Z,27.40
2022-08-03T09:26:40.083Z,27.40
2022-08-03T09:31:45.567Z,27.40
2022-08-03T09:36:51.629Z,27.40
2022-08-03T09:42:14.686Z,27.40
2022-08-03T09:47:29.500Z,27.40
2022-08-03T09:52:49.630Z,27.40
2022-08-03T09:58:09.228Z,27.40
2022-08-03T10:03:12.765Z,27.40
2022-08-03T10:08:17.287Z,27.40
2022-08-03T10:13:24.200Z,27.40
2022-08-03T10:18:27.672Z,27.40
2022-08-03T10:23:33.978Z,27.40
2022-08-03T10:28:45.267Z,27.50
2022-08-03T10:33:53.061Z,27.40
2022-08-03T10:38:57.179Z,27.50
2022-08-03T10:44:06.879Z,27.50
2022-08-03T10:49:13.579Z,27.50
2022-08-03T10:54:57.787Z,27.50
2022-08-03T11:00:06.217Z,27.50
2022-08-03T11:05:28.127Z,27.50
2022-08-03T11:10:33.269Z,27.50
2022-08-03T11:15:38.715Z,27.50
2022-08-03T11:20:49.786Z,27.50
2022-08-03T11:26:13.105Z,27.50
2022-08-03T11:31:50.924Z,27.50
2022-08-03T11:37:26.390Z,27.50
2022-08-03T11:42:47.026Z,27.50
2022-08-03T11:47:55.440Z,27.50
2022-08-03T11:52:58.982Z,27.50
2022-08-03T11:59:13.119Z,27.50
2022-08-03T12:03:34.193Z,27.50
2022-08-03T12:08:37.808Z,27.50
2022-08-03T12:14:10.734Z,27.50
2022-08-03T12:19:08.503Z,27.50
2022-08-03T12:24:12.403Z,27.50
2022-08-03T12:29:19.481Z,27.50
2022-08-03T12:34:24.481Z,27.60
2022-08-03T12:39:31.551Z,27.60
2022-08-03T12:44:37.519Z,27.60
2022-08-03T12:49:49.592Z,27.60
2022-08-03T12:54:57.384Z,27.60
2022-08-03T13:00:21.696Z,27.60
2022-08-03T13:05:43.725Z,27.60
2022-08-03T13:10:47.312Z,27.60
2022-08-03T13:15:50.744Z,27.60
2022-08-03T13:20:55.644Z,27.60
2022-08-03T13:25:59.162Z,27.60
2022-08-03T13:31:02.833Z,27.60
2022-08-03T13:36:08.801Z,27.60
2022-08-03T13:41:15.480Z,27.60
2022-08-03T13:46:20.418Z,27.70
2022-08-03T13:51:26.992Z,27.70
2022-08-03T13:56:31.573Z,27.60
2022-08-03T14:01:54.099Z,27.70
2022-08-03T14:06:59.649Z,27.70
2022-08-03T14:12:07.226Z,27.70
2022-08-03T14:17:12.086Z,27.70
2022-08-03T14:22:16.879Z,27.80
2022-08-03T14:27:20.370Z,27.80
2022-08-03T14:32:23.847Z,27.80
2022-08-03T14:37:28.760Z,27.80
2022-08-03T14:42:32.294Z,27.80
2022-08-03T14:47:36.504Z,27.80
2022-08-03T14:53:00.776Z,27.90
2022-08-03T14:58:20.674Z,27.90
2022-08-03T15:03:26.022Z,27.90
2022-08-03T15:08:31.056Z,27.90
2022-08-03T15:13:34.668Z,28.00
2022-08-03T15:18:38.105Z,28.00
2022-08-03T15:23:43.344Z,28.00
2022-08-03T15:28:46.910Z,28.00
2022-08-03T15:33:51.127Z,28.10
2022-08-03T15:38:56.063Z,28.10
2022-08-03T15:43:59.674Z,28.10
2022-08-03T15:49:02.965Z,28.20
2022-08-03T15:54:08.600Z,28.20
2022-08-03T15:59:14.064Z,28.20
2022-08-03T16:04:17.727Z,28.30
2022-08-03T16:09:24.039Z,28.30
2022-08-03T16:14:54.170Z,28.30
2022-08-03T16:19:58.039Z,28.40
2022-08-03T16:25:03.461Z,28.40
2022-08-03T16:30:09.176Z,28.50
2022-08-03T16:35:19.552Z,28.50
2022-08-03T16:40:26.658Z,28.50
2022-08-03T16:45:30.160Z,28.50
2022-08-03T16:50:35.042Z,28.60
2022-08-03T16:55:43.382Z,28.60
2022-08-03T17:00:55.856Z,28.70
2022-08-03T17:06:01.764Z,28.70
2022-08-03T17:11:06.871Z,28.70
2022-08-03T17:16:15.117Z,28.80
2022-08-03T17:21:24.637Z,28.80
2022-08-03T17:26:39.418Z,28.80
2022-08-03T17:31:49.401Z,28.90
2022-08-03T17:37:22.103Z,28.90
2022-08-03T17:42:38.921Z,28.90
2022-08-03T17:53:14.478Z,28.90
2022-08-03T17:58:27.261Z,28.90
2022-08-03T18:03:56.964Z,28.90
2022-08-03T18:09:05.370Z,28.90
2022-08-03T18:14:38.475Z,28.90
2022-08-03T18:20:02.501Z,28.90
2022-08-03T18:25:07.506Z,28.90
2022-08-03T18:30:14.590Z,28.80
2022-08-03T18:35:21.306Z,28.90
2022-08-03T18:40:30.452Z,28.90
2022-08-03T18:45:56.191Z,28.80
2022-08-03T18:51:06.833Z,28.80
2022-08-03T18:56:16.151Z,28.80
2022-08-03T19:02:00.593Z,28.80
2022-08-03T19:07:07.907Z,28.80
2022-08-03T19:12:30.693Z,28.80
2022-08-03T19:17:42.691Z,28.80
2022-08-03T19:22:56.125Z,28.80
2022-08-03T19:28:03.092Z,28.80
2022-08-03T19:33:10.963Z,28.80
2022-08-03T19:38:17.269Z,28.80
2022-08-03T19:43:53.275Z,28.80
2022-08-03T19:49:02.636Z,28.70
2022-08-03T19:54:06.522Z,28.70
2022-08-03T19:59:14.717Z,28.70
2022-08-03T20:04:21.814Z,28.70
2022-08-03T20:14:49.940Z,28.70
2022-08-03T20:19:55.523Z,28.70
2022-08-03T20:25:01.396Z,28.70
2022-08-03T20:30:08.067Z,28.70
2022-08-03T20:35:13.200Z,28.70
2022-08-03T20:40:18.542Z,28.70
2022-08-03T20:45:59.234Z,28.70
2022-08-03T20:50:47.355Z,28.70
2022-08-03T20:56:02.460Z,28.60
2022-08-03T21:01:06.308Z,28.70
2022-08-03T21:06:14.971Z,28.70
2022-08-03T21:11:20.090Z,28.60
2022-08-03T21:13:03.563Z,28.70
2022-08-03T21:13:04.039Z,28.90
2022-08-03T21:16:27.100Z,28.70
2022-08-03T21:21:33.669Z,28.60
2022-08-03T21:26:40.908Z,28.60
2022-08-03T21:31:45.229Z,28.60
2022-08-03T21:36:50.756Z,28.60
2022-08-03T21:41:54.297Z,28.60
2022-08-03T21:46:58.442Z,28.60
2022-08-03T21:52:06.889Z,28.60
2022-08-03T21:57:18.543Z,28.60
2022-08-03T22:02:24.492Z,28.60
2022-08-03T22:07:31.384Z,28.60
2022-08-03T22:12:36.015Z,28.60
2022-08-03T22:17:53.942Z,28.60
2022-08-03T22:23:07.336Z,28.60
2022-08-03T22:28:14.083Z,28.60
2022-08-03T22:33:17.705Z,28.60
2022-08-03T22:38:22.929Z,28.60
2022-08-03T22:43:28.481Z,28.60
2022-08-03T22:48:35.240Z,28.60
2022-08-03T22:53:42.241Z,28.60
2022-08-03T22:58:45.741Z,28.50
2022-08-03T23:04:00.084Z,28.60
2022-08-03T23:09:10.354Z,28.60
2022-08-03T23:14:16.477Z,28.60
2022-08-03T23:19:25.505Z,28.50
2022-08-03T23:24:32.139Z,28.60
2022-08-03T23:29:36.992Z,28.60
2022-08-03T23:34:58.772Z,28.50
2022-08-03T23:40:05.096Z,28.60
2022-08-03T23:45:09.956Z,28.50
2022-08-03T23:50:14.183Z,28.50
2022-08-03T23:55:30.776Z,28.60
